createdAt,value
2016-09-24T00:00:09.057Z,20.11
2016-09-24T00:00:41.378Z,20.02
2016-09-24T00:01:13.779Z,20.05
2016-09-24T00:01:46.111Z,20.08
2016-09-24T00:02:18.444Z,20.08
2016-09-24T00:02:50.764Z,20.04
2016-09-24T00:03:23.073Z,20.1
2016-09-24T00:03:55.404Z,20.08
2016-09-24T00:04:27.730Z,20.04
2016-09-24T00:05:00.034Z,20.04
2016-09-24T00:05:32.371Z,20.05
2016-09-24T00:06:04.699Z,20.08
2016-09-24T00:06:37.078Z,19.98
2016-09-24T00:07:09.414Z,20.05
2016-09-24T00:07:41.737Z,20.08
2016-09-24T00:08:14.064Z,20.08
2016-09-24T00:08:46.392Z,20.04
2016-09-24T00:09:18.714Z,20.02
2016-09-24T00:09:51.052Z,20.08
2016-09-24T00:10:23.357Z,20
2016-09-24T00:10:55.697Z,20.07
2016-09-24T00:11:28.034Z,20.07
2016-09-24T00:12:00.358Z,20.02
2016-09-24T00:12:32.681Z,20.01
2016-09-24T00:13:05.004Z,20
2016-09-24T00:13:37.322Z,20.02
2016-09-24T00:14:09.633Z,20.01
2016-09-24T00:14:41.969Z,19.95
2016-09-24T00:15:14.300Z,19.98
2016-09-24T00:15:46.637Z,20
2016-09-24T00:16:18.971Z,20
2016-09-24T00:16:51.288Z,19.95
2016-09-24T00:17:23.615Z,19.95
2016-09-24T00:17:55.944Z,19.95
2016-09-24T00:18:28.277Z,19.95
2016-09-24T00:19:00.609Z,19.89
2016-09-24T00:19:32.920Z,19.92
2016-09-24T00:20:05.236Z,19.92
2016-09-24T00:20:37.560Z,19.89
2016-09-24T00:21:09.895Z,19.86
2016-09-24T00:21:42.227Z,19.9
2016-09-24T00:22:14.557Z,19.95
2016-09-24T00:22:46.884Z,19.93
2016-09-24T00:23:19.206Z,19.95
2016-09-24T00:23:51.519Z,19.93
2016-09-24T00:24:23.844Z,20.01
2016-09-24T00:24:56.156Z,20.01
2016-09-24T00:25:28.484Z,19.98
2016-09-24T00:26:00.805Z,19.89
2016-09-24T00:26:33.149Z,19.89
2016-09-24T00:27:05.466Z,19.93
2016-09-24T00:27:37.795Z,19.92
2016-09-24T00:28:10.123Z,19.92
2016-09-24T00:28:42.452Z,19.82
2016-09-24T00:29:14.770Z,19.89
2016-09-24T00:29:47.098Z,19.87
2016-09-24T00:30:19.414Z,19.85
2016-09-24T00:30:51.745Z,19.86
2016-09-24T00:31:24.072Z,19.87
2016-09-24T00:31:56.399Z,19.85
2016-09-24T00:32:29.412Z,19.93
2016-09-24T00:33:01.735Z,19.87
2016-09-24T00:33:34.067Z,19.85
2016-09-24T00:34:06.392Z,19.86
2016-09-24T00:34:38.724Z,19.86
2016-09-24T00:35:11.057Z,19.87
2016-09-24T00:35:43.369Z,19.85
2016-09-24T00:36:15.693Z,19.86
2016-09-24T00:36:48.002Z,19.86
2016-09-24T00:37:20.327Z,19.9
2016-09-24T00:37:52.658Z,19.86
2016-09-24T00:38:24.983Z,19.72
2016-09-24T00:38:57.315Z,19.83
2016-09-24T00:39:29.630Z,19.83
2016-09-24T00:40:01.959Z,19.78
2016-09-24T00:40:34.289Z,19.85
2016-09-24T00:41:06.612Z,19.83
2016-09-24T00:41:38.919Z,19.82
2016-09-24T00:42:11.240Z,19.83
2016-09-24T00:42:43.567Z,19.82
2016-09-24T00:43:15.886Z,19.87
2016-09-24T00:43:48.221Z,19.78
2016-09-24T00:44:20.540Z,19.83
2016-09-24T00:44:52.869Z,19.75
2016-09-24T00:45:25.186Z,19.85
2016-09-24T00:45:57.516Z,19.87
2016-09-24T00:46:29.843Z,19.82
2016-09-24T00:47:02.160Z,19.8
2016-09-24T00:47:34.486Z,19.79
2016-09-24T00:48:06.798Z,19.83
2016-09-24T00:48:39.122Z,19.83
2016-09-24T00:49:11.454Z,19.78
2016-09-24T00:49:43.778Z,19.82
2016-09-24T00:50:16.108Z,19.75
2016-09-24T00:50:48.416Z,19.71
2016-09-24T00:51:20.746Z,19.74
2016-09-24T00:51:53.073Z,19.79
2016-09-24T00:52:25.400Z,19.74
2016-09-24T00:52:57.724Z,19.72
2016-09-24T00:53:30.047Z,19.83
2016-09-24T00:54:02.381Z,19.75
2016-09-24T00:54:34.715Z,19.67
2016-09-24T00:55:07.055Z,19.78
2016-09-24T00:55:39.387Z,19.75
2016-09-24T00:56:11.699Z,19.72
2016-09-24T00:56:44.019Z,19.75
2016-09-24T00:57:16.345Z,19.71
2016-09-24T00:57:48.673Z,19.7
2016-09-24T00:58:21.000Z,19.63
2016-09-24T00:58:53.332Z,19.7
2016-09-24T00:59:25.657Z,19.65
2016-09-24T00:59:57.992Z,19.72
2016-09-24T01:00:30.316Z,19.7
2016-09-24T01:01:02.647Z,19.63
2016-09-24T01:01:34.983Z,19.67
2016-09-24T01:02:07.316Z,19.68
2016-09-24T01:02:39.636Z,19.71
2016-09-24T01:03:11.958Z,19.68
2016-09-24T01:03:44.288Z,19.65
2016-09-24T01:04:16.613Z,19.7
2016-09-24T01:04:48.932Z,19.64
2016-09-24T01:05:21.259Z,19.74
2016-09-24T01:05:53.595Z,19.64
2016-09-24T01:06:25.933Z,19.64
2016-09-24T01:06:58.257Z,19.71
2016-09-24T01:07:30.587Z,19.63
2016-09-24T01:08:02.909Z,19.64
2016-09-24T01:08:35.233Z,19.65
2016-09-24T01:09:07.564Z,19.65
2016-09-24T01:09:39.899Z,19.63
2016-09-24T01:10:12.215Z,19.65
2016-09-24T01:10:44.529Z,19.68
2016-09-24T01:11:16.853Z,19.7
2016-09-24T01:11:49.155Z,19.68
2016-09-24T01:12:21.478Z,19.71
2016-09-24T01:12:53.806Z,19.67
2016-09-24T01:13:26.147Z,19.61
2016-09-24T01:13:58.473Z,19.65
2016-09-24T01:14:30.809Z,19.63
2016-09-24T01:15:03.153Z,19.64
2016-09-24T01:15:35.484Z,19.72
2016-09-24T01:16:07.814Z,19.65
2016-09-24T01:16:40.138Z,19.67
2016-09-24T01:17:12.473Z,19.63
2016-09-24T01:17:44.786Z,19.61
2016-09-24T01:18:17.117Z,19.61
2016-09-24T01:18:49.447Z,19.63
2016-09-24T01:19:21.773Z,19.6
2016-09-24T01:19:54.103Z,19.63
2016-09-24T01:20:26.437Z,19.55
2016-09-24T01:20:58.752Z,19.64
2016-09-24T01:21:31.067Z,19.64
2016-09-24T01:22:03.399Z,19.65
2016-09-24T01:22:35.720Z,19.61
2016-09-24T01:23:08.060Z,19.5
2016-09-24T01:23:40.393Z,19.6
2016-09-24T01:24:12.708Z,19.57
2016-09-24T01:24:45.037Z,19.6
2016-09-24T01:25:17.362Z,19.52
2016-09-24T01:25:49.703Z,19.55
2016-09-24T01:26:22.023Z,19.52
2016-09-24T01:26:54.356Z,19.5
2016-09-24T01:27:26.684Z,19.53
2016-09-24T01:27:59.010Z,19.49
2016-09-24T01:28:31.337Z,19.53
2016-09-24T01:29:03.666Z,19.57
2016-09-24T01:29:35.997Z,19.55
2016-09-24T01:30:08.308Z,19.56
2016-09-24T01:30:40.639Z,19.49
2016-09-24T01:31:12.966Z,19.55
2016-09-24T01:31:45.278Z,19.5
2016-09-24T01:32:17.615Z,19.55
2016-09-24T01:32:49.949Z,19.47
2016-09-24T01:33:22.277Z,19.53
2016-09-24T01:33:54.607Z,19.53
2016-09-24T01:34:26.933Z,19.46
2016-09-24T01:34:59.254Z,19.53
2016-09-24T01:35:31.557Z,19.6
2016-09-24T01:36:03.883Z,19.53
2016-09-24T01:36:36.216Z,19.46
2016-09-24T01:37:08.545Z,19.5
2016-09-24T01:37:40.893Z,19.52
2016-09-24T01:38:13.218Z,19.47
2016-09-24T01:38:45.561Z,19.47
2016-09-24T01:39:17.904Z,19.5
2016-09-24T01:39:50.228Z,19.47
2016-09-24T01:40:22.558Z,19.56
2016-09-24T01:40:54.880Z,19.46
2016-09-24T01:41:27.199Z,19.45
2016-09-24T01:41:59.513Z,19.5
2016-09-24T01:42:31.841Z,19.49
2016-09-24T01:43:04.166Z,19.47
2016-09-24T01:43:36.636Z,19.46
2016-09-24T01:44:08.976Z,19.45
2016-09-24T01:44:41.302Z,19.46
2016-09-24T01:45:13.638Z,19.56
2016-09-24T01:45:45.968Z,19.45
2016-09-24T01:46:18.307Z,19.5
2016-09-24T01:46:50.638Z,19.46
2016-09-24T01:47:22.971Z,19.46
2016-09-24T01:47:55.299Z,19.5
2016-09-24T01:48:27.611Z,19.42
2016-09-24T01:48:59.945Z,19.55
2016-09-24T01:49:32.262Z,19.52
2016-09-24T01:50:04.589Z,19.47
2016-09-24T01:50:36.939Z,19.43
2016-09-24T01:51:09.277Z,19.43
2016-09-24T01:51:41.601Z,19.42
2016-09-24T01:52:13.936Z,19.38
2016-09-24T01:52:46.277Z,19.53
2016-09-24T01:53:18.586Z,19.37
2016-09-24T01:53:50.898Z,19.56
2016-09-24T01:54:23.219Z,19.43
2016-09-24T01:54:55.542Z,19.4
2016-09-24T01:55:27.864Z,19.46
2016-09-24T01:56:00.166Z,19.4
2016-09-24T01:56:32.493Z,19.45
2016-09-24T01:57:04.813Z,19.47
2016-09-24T01:57:37.143Z,19.46
2016-09-24T01:58:09.470Z,19.43
2016-09-24T01:58:41.789Z,19.45
2016-09-24T01:59:14.126Z,19.4
2016-09-24T01:59:46.456Z,19.46
2016-09-24T02:00:18.787Z,19.49
2016-09-24T02:00:51.099Z,19.46
2016-09-24T02:01:23.428Z,19.46
2016-09-24T02:01:55.757Z,19.43
2016-09-24T02:02:28.075Z,19.45
2016-09-24T02:03:00.419Z,19.45
2016-09-24T02:03:32.749Z,19.43
2016-09-24T02:04:05.077Z,19.46
2016-09-24T02:04:37.404Z,19.37
2016-09-24T02:05:09.718Z,19.42
2016-09-24T02:05:42.025Z,19.46
2016-09-24T02:06:14.334Z,19.38
2016-09-24T02:06:46.644Z,19.43
2016-09-24T02:07:18.978Z,19.45
2016-09-24T02:07:51.309Z,19.45
2016-09-24T02:08:23.646Z,19.31
2016-09-24T02:08:55.971Z,19.37
2016-09-24T02:09:28.304Z,19.38
2016-09-24T02:10:00.636Z,19.43
2016-09-24T02:10:32.952Z,19.43
2016-09-24T02:11:05.260Z,19.38
2016-09-24T02:11:37.588Z,19.37
2016-09-24T02:12:09.925Z,19.46
2016-09-24T02:12:42.255Z,19.38
2016-09-24T02:13:14.561Z,19.3
2016-09-24T02:13:46.898Z,19.38
2016-09-24T02:14:19.224Z,19.34
2016-09-24T02:14:51.547Z,19.35
2016-09-24T02:15:23.874Z,19.34
2016-09-24T02:15:56.196Z,19.38
2016-09-24T02:16:28.531Z,19.34
2016-09-24T02:17:00.851Z,19.3
2016-09-24T02:17:33.180Z,19.35
2016-09-24T02:18:05.507Z,19.25
2016-09-24T02:18:37.824Z,19.34
2016-09-24T02:19:10.137Z,19.35
2016-09-24T02:19:42.453Z,19.3
2016-09-24T02:20:14.772Z,19.28
2016-09-24T02:20:47.093Z,19.34
2016-09-24T02:21:19.414Z,19.2
2016-09-24T02:21:51.722Z,19.27
2016-09-24T02:22:24.056Z,19.32
2016-09-24T02:22:56.389Z,19.3
2016-09-24T02:23:28.725Z,19.25
2016-09-24T02:24:01.046Z,19.37
2016-09-24T02:24:33.378Z,19.3
2016-09-24T02:25:05.711Z,19.37
2016-09-24T02:25:38.036Z,19.27
2016-09-24T02:26:10.369Z,19.28
2016-09-24T02:26:42.686Z,19.3
2016-09-24T02:27:15.027Z,19.2
2016-09-24T02:27:47.355Z,19.15
2016-09-24T02:28:19.680Z,19.28
2016-09-24T02:28:52.003Z,19.34
2016-09-24T02:29:24.343Z,19.31
2016-09-24T02:29:56.672Z,19.25
2016-09-24T02:30:28.995Z,19.32
2016-09-24T02:31:01.316Z,19.32
2016-09-24T02:31:33.656Z,19.31
2016-09-24T02:32:05.980Z,19.28
2016-09-24T02:32:38.306Z,19.25
2016-09-24T02:33:10.623Z,19.24
2016-09-24T02:33:42.948Z,19.23
2016-09-24T02:34:15.263Z,19.27
2016-09-24T02:34:47.572Z,19.24
2016-09-24T02:35:19.898Z,19.27
2016-09-24T02:35:52.222Z,19.3
2016-09-24T02:36:24.546Z,19.3
2016-09-24T02:36:56.871Z,19.23
2016-09-24T02:37:29.197Z,19.13
2016-09-24T02:38:01.519Z,19.19
2016-09-24T02:38:33.848Z,19.19
2016-09-24T02:39:06.201Z,19.17
2016-09-24T02:39:38.521Z,19.24
2016-09-24T02:40:10.853Z,19.25
2016-09-24T02:40:43.161Z,19.15
2016-09-24T02:41:15.490Z,19.2
2016-09-24T02:41:47.817Z,19.19
2016-09-24T02:42:20.126Z,19.27
2016-09-24T02:42:52.448Z,19.13
2016-09-24T02:43:24.778Z,19.1
2016-09-24T02:43:57.113Z,19.25
2016-09-24T02:44:29.435Z,19.23
2016-09-24T02:45:01.761Z,19.2
2016-09-24T02:45:34.077Z,19.19
2016-09-24T02:46:06.395Z,19.23
2016-09-24T02:46:38.727Z,19.2
2016-09-24T02:47:11.056Z,19.24
2016-09-24T02:47:43.368Z,19.2
2016-09-24T02:48:15.676Z,19.24
2016-09-24T02:48:48.005Z,19.15
2016-09-24T02:49:20.334Z,19.2
2016-09-24T02:49:52.672Z,19.2
2016-09-24T02:50:25.003Z,19.1
2016-09-24T02:50:57.331Z,19.13
2016-09-24T02:51:29.669Z,19.13
2016-09-24T02:52:02.002Z,19.15
2016-09-24T02:52:34.335Z,19.17
2016-09-24T02:53:06.651Z,19.15
2016-09-24T02:53:38.991Z,19.13
2016-09-24T02:54:11.302Z,19.12
2016-09-24T02:54:43.619Z,19.2
2016-09-24T02:55:15.934Z,19.13
2016-09-24T02:55:48.267Z,19.16
2016-09-24T02:56:20.601Z,19.15
2016-09-24T02:56:52.950Z,19.15
2016-09-24T02:57:25.269Z,19.1
2016-09-24T02:57:57.599Z,19.16
2016-09-24T02:58:29.920Z,19.05
2016-09-24T02:59:02.244Z,19.12
2016-09-24T02:59:34.563Z,19.09
2016-09-24T03:00:06.872Z,19.15
2016-09-24T03:00:39.199Z,19.12
2016-09-24T03:01:11.525Z,19.16
2016-09-24T03:01:43.839Z,19.12
2016-09-24T03:02:16.179Z,19.09
2016-09-24T03:02:48.507Z,19.13
2016-09-24T03:03:20.840Z,19.13
2016-09-24T03:03:53.171Z,19.15
2016-09-24T03:04:25.473Z,19.09
2016-09-24T03:04:57.797Z,19.15
2016-09-24T03:05:30.123Z,19.13
2016-09-24T03:06:02.461Z,19.15
2016-09-24T03:06:34.781Z,19.12
2016-09-24T03:07:07.126Z,19.06
2016-09-24T03:07:39.454Z,19.1
2016-09-24T03:08:11.782Z,19.09
2016-09-24T03:08:44.109Z,19.16
2016-09-24T03:09:16.426Z,18.97
2016-09-24T03:09:48.756Z,19.12
2016-09-24T03:10:21.095Z,19.07
2016-09-24T03:10:53.415Z,19.16
2016-09-24T03:11:25.731Z,19.1
2016-09-24T03:11:58.068Z,19.16
2016-09-24T03:12:30.395Z,19.12
2016-09-24T03:13:02.716Z,19.06
2016-09-24T03:13:35.042Z,18.99
2016-09-24T03:14:07.378Z,19.05
2016-09-24T03:14:39.709Z,19.09
2016-09-24T03:15:12.036Z,19.06
2016-09-24T03:15:44.349Z,19.02
2016-09-24T03:16:16.655Z,19.16
2016-09-24T03:16:48.989Z,19.09
2016-09-24T03:17:21.323Z,19.05
2016-09-24T03:17:53.632Z,19.06
2016-09-24T03:18:25.944Z,19
2016-09-24T03:18:58.281Z,18.99
2016-09-24T03:19:30.605Z,19
2016-09-24T03:20:02.922Z,19.07
2016-09-24T03:20:35.257Z,19
2016-09-24T03:21:07.589Z,18.97
2016-09-24T03:21:39.911Z,19.02
2016-09-24T03:22:12.250Z,19
2016-09-24T03:22:44.581Z,18.99
2016-09-24T03:23:16.914Z,19.07
2016-09-24T03:23:49.242Z,19.06
2016-09-24T03:24:21.575Z,19.05
2016-09-24T03:24:53.902Z,19.07
2016-09-24T03:25:26.235Z,19
2016-09-24T03:25:58.568Z,18.99
2016-09-24T03:26:30.894Z,18.99
2016-09-24T03:27:03.227Z,19
2016-09-24T03:27:35.559Z,18.94
2016-09-24T03:28:07.873Z,18.99
2016-09-24T03:28:40.209Z,19.05
2016-09-24T03:29:12.532Z,18.99
2016-09-24T03:29:44.863Z,18.94
2016-09-24T03:30:17.171Z,19
2016-09-24T03:30:49.479Z,18.97
2016-09-24T03:31:21.805Z,19.07
2016-09-24T03:31:54.135Z,19
2016-09-24T03:32:26.457Z,18.99
2016-09-24T03:32:58.793Z,18.99
2016-09-24T03:33:31.120Z,18.94
2016-09-24T03:34:03.432Z,19.02
2016-09-24T03:34:35.766Z,18.94
2016-09-24T03:35:08.083Z,18.91
2016-09-24T03:35:40.413Z,19
2016-09-24T03:36:12.741Z,18.96
2016-09-24T03:36:45.077Z,19
2016-09-24T03:37:17.419Z,18.96
2016-09-24T03:37:49.745Z,18.99
2016-09-24T03:38:22.072Z,18.91
2016-09-24T03:38:54.405Z,19
2016-09-24T03:39:26.733Z,18.93
2016-09-24T03:39:59.052Z,18.87
2016-09-24T03:40:31.380Z,18.97
2016-09-24T03:41:03.715Z,18.97
2016-09-24T03:41:36.035Z,18.94
2016-09-24T03:42:08.352Z,18.91
2016-09-24T03:42:40.666Z,18.94
2016-09-24T03:43:13.000Z,18.97
2016-09-24T03:43:45.315Z,18.9
2016-09-24T03:44:17.642Z,18.93
2016-09-24T03:44:49.967Z,18.91
2016-09-24T03:45:22.291Z,18.96
2016-09-24T03:45:54.613Z,18.96
2016-09-24T03:46:26.919Z,18.89
2016-09-24T03:46:59.231Z,18.89
2016-09-24T03:47:31.560Z,18.93
2016-09-24T03:48:03.895Z,18.91
2016-09-24T03:48:36.208Z,18.96
2016-09-24T03:49:08.528Z,18.96
2016-09-24T03:49:40.861Z,18.97
2016-09-24T03:50:13.194Z,18.93
2016-09-24T03:50:45.537Z,18.93
2016-09-24T03:51:17.878Z,18.86
2016-09-24T03:51:50.201Z,18.87
2016-09-24T03:52:22.514Z,18.93
2016-09-24T03:52:54.852Z,18.86
2016-09-24T03:53:27.175Z,18.93
2016-09-24T03:53:59.501Z,18.89
2016-09-24T03:54:31.832Z,18.87
2016-09-24T03:55:04.165Z,18.89
2016-09-24T03:55:36.495Z,18.9
2016-09-24T03:56:08.820Z,18.86
2016-09-24T03:56:41.126Z,18.91
2016-09-24T03:57:13.459Z,18.89
2016-09-24T03:57:45.778Z,18.91
2016-09-24T03:58:18.101Z,18.87
2016-09-24T03:58:50.434Z,18.87
2016-09-24T03:59:22.769Z,18.86
2016-09-24T03:59:55.103Z,18.86
2016-09-24T04:00:27.426Z,18.87
2016-09-24T04:00:59.760Z,18.89
2016-09-24T04:01:32.083Z,18.84
2016-09-24T04:02:04.427Z,18.89
2016-09-24T04:02:36.767Z,18.82
2016-09-24T04:03:09.082Z,18.81
2016-09-24T04:03:41.427Z,18.86
2016-09-24T04:04:13.754Z,18.84
2016-09-24T04:04:46.078Z,18.87
2016-09-24T04:05:18.415Z,18.86
2016-09-24T04:05:50.755Z,18.89
2016-09-24T04:06:23.066Z,18.81
2016-09-24T04:06:55.407Z,18.86
2016-09-24T04:07:27.729Z,18.84
2016-09-24T04:08:00.059Z,18.82
2016-09-24T04:08:32.384Z,18.89
2016-09-24T04:09:04.707Z,18.84
2016-09-24T04:09:37.033Z,18.82
2016-09-24T04:10:09.356Z,18.81
2016-09-24T04:10:41.695Z,18.86
2016-09-24T04:11:14.035Z,18.84
2016-09-24T04:11:46.335Z,18.84
2016-09-24T04:12:18.668Z,18.84
2016-09-24T04:12:50.995Z,18.86
2016-09-24T04:13:23.332Z,18.75
2016-09-24T04:13:55.657Z,18.84
2016-09-24T04:14:28.005Z,18.75
2016-09-24T04:15:00.329Z,18.84
2016-09-24T04:15:32.646Z,18.87
2016-09-24T04:16:05.014Z,18.78
2016-09-24T04:16:37.359Z,18.78
2016-09-24T04:17:09.686Z,18.82
2016-09-24T04:17:42.000Z,18.84
2016-09-24T04:18:14.333Z,18.79
2016-09-24T04:18:46.655Z,18.74
2016-09-24T04:19:18.978Z,18.82
2016-09-24T04:19:51.312Z,18.87
2016-09-24T04:20:23.646Z,18.81
2016-09-24T04:20:55.976Z,18.79
2016-09-24T04:21:28.305Z,18.78
2016-09-24T04:22:00.637Z,18.81
2016-09-24T04:22:32.951Z,18.79
2016-09-24T04:23:05.274Z,18.86
2016-09-24T04:23:37.598Z,18.84
2016-09-24T04:24:09.927Z,18.78
2016-09-24T04:24:42.244Z,18.76
2016-09-24T04:25:14.567Z,18.79
2016-09-24T04:25:46.884Z,18.79
2016-09-24T04:26:19.203Z,18.78
2016-09-24T04:26:51.527Z,18.76
2016-09-24T04:27:23.833Z,18.78
2016-09-24T04:27:56.164Z,18.79
2016-09-24T04:28:28.499Z,18.74
2016-09-24T04:29:00.823Z,18.75
2016-09-24T04:29:33.131Z,18.66
2016-09-24T04:30:05.452Z,18.82
2016-09-24T04:30:37.784Z,18.74
2016-09-24T04:31:10.123Z,18.74
2016-09-24T04:31:42.448Z,18.72
2016-09-24T04:32:14.775Z,18.74
2016-09-24T04:32:47.103Z,18.68
2016-09-24T04:33:19.416Z,18.69
2016-09-24T04:33:51.737Z,18.79
2016-09-24T04:34:24.056Z,18.72
2016-09-24T04:34:56.387Z,18.72
2016-09-24T04:35:28.710Z,18.69
2016-09-24T04:36:01.020Z,18.81
2016-09-24T04:36:33.334Z,18.74
2016-09-24T04:37:05.677Z,18.63
2016-09-24T04:37:37.995Z,18.71
2016-09-24T04:38:10.309Z,18.74
2016-09-24T04:38:42.629Z,18.66
2016-09-24T04:39:14.970Z,18.69
2016-09-24T04:39:47.288Z,18.71
2016-09-24T04:40:19.624Z,18.69
2016-09-24T04:40:51.945Z,18.65
2016-09-24T04:41:24.262Z,18.69
2016-09-24T04:41:56.586Z,18.71
2016-09-24T04:42:28.908Z,18.69
2016-09-24T04:43:01.228Z,18.66
2016-09-24T04:43:33.563Z,18.69
2016-09-24T04:44:05.899Z,18.69
2016-09-24T04:44:38.212Z,18.71
2016-09-24T04:45:10.536Z,18.68
2016-09-24T04:45:42.862Z,18.65
2016-09-24T04:46:15.185Z,18.74
2016-09-24T04:46:47.507Z,18.65
2016-09-24T04:47:19.835Z,18.72
2016-09-24T04:47:52.154Z,18.71
2016-09-24T04:48:24.470Z,18.66
2016-09-24T04:48:56.798Z,18.69
2016-09-24T04:49:29.123Z,18.68
2016-09-24T04:50:01.444Z,18.74
2016-09-24T04:50:33.749Z,18.69
2016-09-24T04:51:06.056Z,18.71
2016-09-24T04:51:38.375Z,18.63
2016-09-24T04:52:10.695Z,18.71
2016-09-24T04:52:43.020Z,18.71
2016-09-24T04:53:15.349Z,18.68
2016-09-24T04:53:47.686Z,18.68
2016-09-24T04:54:20.007Z,18.74
2016-09-24T04:54:52.342Z,18.71
2016-09-24T04:55:24.673Z,18.69
2016-09-24T04:55:57.010Z,18.66
2016-09-24T04:56:29.326Z,18.66
2016-09-24T04:57:01.648Z,18.71
2016-09-24T04:57:33.978Z,18.68
2016-09-24T04:58:06.300Z,18.68
2016-09-24T04:58:38.622Z,18.72
2016-09-24T04:59:10.947Z,18.68
2016-09-24T04:59:43.273Z,18.63
2016-09-24T05:00:15.595Z,18.63
2016-09-24T05:00:47.913Z,18.68
2016-09-24T05:01:20.249Z,18.61
2016-09-24T05:01:52.589Z,18.68
2016-09-24T05:02:24.928Z,18.6
2016-09-24T05:02:57.246Z,18.65
2016-09-24T05:03:29.601Z,18.65
2016-09-24T05:04:01.933Z,18.65
2016-09-24T05:04:34.267Z,18.6
2016-09-24T05:05:06.579Z,18.65
2016-09-24T05:05:38.904Z,18.69
2016-09-24T05:06:11.228Z,18.65
2016-09-24T05:06:43.552Z,18.69
2016-09-24T05:07:15.872Z,18.61
2016-09-24T05:07:48.202Z,18.69
2016-09-24T05:08:20.516Z,18.65
2016-09-24T05:08:52.829Z,18.69
2016-09-24T05:09:25.161Z,18.63
2016-09-24T05:09:57.475Z,18.63
2016-09-24T05:10:29.790Z,18.65
2016-09-24T05:11:02.119Z,18.61
2016-09-24T05:11:34.463Z,18.6
2016-09-24T05:12:06.788Z,18.69
2016-09-24T05:12:39.124Z,18.65
2016-09-24T05:13:11.453Z,18.63
2016-09-24T05:13:43.772Z,18.63
2016-09-24T05:14:16.092Z,18.61
2016-09-24T05:14:48.421Z,18.6
2016-09-24T05:15:20.748Z,18.66
2016-09-24T05:15:53.070Z,18.65
2016-09-24T05:16:25.399Z,18.63
2016-09-24T05:16:57.707Z,18.63
2016-09-24T05:17:30.044Z,18.61
2016-09-24T05:18:02.375Z,18.63
2016-09-24T05:18:34.707Z,18.63
2016-09-24T05:19:07.026Z,18.65
2016-09-24T05:19:39.348Z,18.61
2016-09-24T05:20:11.680Z,18.65
2016-09-24T05:20:44.006Z,18.66
2016-09-24T05:21:16.324Z,18.65
2016-09-24T05:21:48.646Z,18.6
2016-09-24T05:22:20.972Z,18.61
2016-09-24T05:22:53.302Z,18.63
2016-09-24T05:23:25.641Z,18.63
2016-09-24T05:23:57.968Z,18.65
2016-09-24T05:24:30.304Z,18.68
2016-09-24T05:25:02.628Z,18.59
2016-09-24T05:25:34.960Z,18.61
2016-09-24T05:26:07.282Z,18.61
2016-09-24T05:26:39.605Z,18.61
2016-09-24T05:27:11.942Z,18.61
2016-09-24T05:27:44.268Z,18.63
2016-09-24T05:28:16.602Z,18.61
2016-09-24T05:28:48.922Z,18.63
2016-09-24T05:29:21.246Z,18.61
2016-09-24T05:29:53.572Z,18.6
2016-09-24T05:30:25.889Z,18.57
2016-09-24T05:30:58.230Z,18.66
2016-09-24T05:31:30.560Z,18.63
2016-09-24T05:32:02.892Z,18.63
2016-09-24T05:32:35.224Z,18.61
2016-09-24T05:33:07.549Z,18.61
2016-09-24T05:33:39.888Z,18.61
2016-09-24T05:34:12.216Z,18.65
2016-09-24T05:34:44.515Z,18.63
2016-09-24T05:35:16.831Z,18.61
2016-09-24T05:35:49.164Z,18.65
2016-09-24T05:36:21.488Z,18.66
2016-09-24T05:36:53.816Z,18.61
2016-09-24T05:37:26.145Z,18.63
2016-09-24T05:37:58.473Z,18.6
2016-09-24T05:38:30.789Z,18.65
2016-09-24T05:39:03.120Z,18.63
2016-09-24T05:39:35.471Z,18.69
2016-09-24T05:40:07.802Z,18.66
2016-09-24T05:40:40.118Z,18.66
2016-09-24T05:41:12.430Z,18.61
2016-09-24T05:41:44.755Z,18.63
2016-09-24T05:42:17.078Z,18.59
2016-09-24T05:42:49.405Z,18.6
2016-09-24T05:43:21.742Z,18.66
2016-09-24T05:43:54.070Z,18.63
2016-09-24T05:44:26.384Z,18.66
2016-09-24T05:44:58.705Z,18.65
2016-09-24T05:45:31.038Z,18.63
2016-09-24T05:46:03.363Z,18.59
2016-09-24T05:46:35.688Z,18.6
2016-09-24T05:47:08.021Z,18.66
2016-09-24T05:47:40.335Z,18.71
2016-09-24T05:48:12.673Z,18.68
2016-09-24T05:48:44.988Z,18.71
2016-09-24T05:49:17.310Z,18.59
2016-09-24T05:49:49.649Z,18.71
2016-09-24T05:50:21.976Z,18.71
2016-09-24T05:50:54.317Z,18.68
2016-09-24T05:51:26.651Z,18.63
2016-09-24T05:51:58.974Z,18.63
2016-09-24T05:52:31.299Z,18.68
2016-09-24T05:53:03.636Z,18.71
2016-09-24T05:53:35.960Z,18.71
2016-09-24T05:54:08.290Z,18.71
2016-09-24T05:54:40.609Z,18.68
2016-09-24T05:55:12.930Z,18.72
2016-09-24T05:55:45.261Z,18.72
2016-09-24T05:56:17.584Z,18.72
2016-09-24T05:56:49.897Z,18.74
2016-09-24T05:57:22.211Z,18.74
2016-09-24T05:57:54.550Z,18.66
2016-09-24T05:58:26.872Z,18.71
2016-09-24T05:58:59.186Z,18.6
2016-09-24T05:59:31.495Z,18.68
2016-09-24T06:00:03.821Z,18.65
2016-09-24T06:00:36.156Z,18.72
2016-09-24T06:01:08.499Z,18.66
2016-09-24T06:01:40.827Z,18.65
2016-09-24T06:02:13.182Z,18.74
2016-09-24T06:02:45.497Z,18.75
2016-09-24T06:03:17.825Z,18.72
2016-09-24T06:03:50.152Z,18.65
2016-09-24T06:04:22.471Z,18.66
2016-09-24T06:04:54.803Z,18.72
2016-09-24T06:05:27.119Z,18.78
2016-09-24T06:05:59.433Z,18.74
2016-09-24T06:06:31.742Z,18.81
2016-09-24T06:07:04.071Z,18.76
2016-09-24T06:07:36.394Z,18.66
2016-09-24T06:08:08.719Z,18.78
2016-09-24T06:08:41.023Z,18.81
2016-09-24T06:09:13.343Z,18.81
2016-09-24T06:09:45.703Z,18.79
2016-09-24T06:10:18.022Z,18.84
2016-09-24T06:10:50.347Z,18.81
2016-09-24T06:11:22.681Z,18.78
2016-09-24T06:11:54.997Z,18.84
2016-09-24T06:12:27.316Z,18.84
2016-09-24T06:12:59.651Z,18.72
2016-09-24T06:13:31.981Z,18.78
2016-09-24T06:14:04.308Z,18.84
2016-09-24T06:14:36.628Z,18.81
2016-09-24T06:15:08.950Z,18.89
2016-09-24T06:15:41.279Z,18.81
2016-09-24T06:16:13.598Z,18.82
2016-09-24T06:16:45.934Z,18.82
2016-09-24T06:17:18.259Z,18.86
2016-09-24T06:17:50.569Z,18.81
2016-09-24T06:18:22.878Z,18.89
2016-09-24T06:18:55.203Z,18.89
2016-09-24T06:19:27.535Z,18.91
2016-09-24T06:19:59.859Z,18.96
2016-09-24T06:20:32.193Z,18.93
2016-09-24T06:21:04.518Z,18.97
2016-09-24T06:21:36.863Z,18.9
2016-09-24T06:22:09.182Z,18.97
2016-09-24T06:22:41.503Z,18.94
2016-09-24T06:23:13.837Z,18.97
2016-09-24T06:23:46.163Z,18.99
2016-09-24T06:24:18.470Z,18.99
2016-09-24T06:24:50.806Z,18.96
2016-09-24T06:25:23.128Z,18.96
2016-09-24T06:25:55.450Z,19.07
2016-09-24T06:26:27.777Z,19.12
2016-09-24T06:27:00.126Z,19.12
2016-09-24T06:27:32.446Z,19.09
2016-09-24T06:28:04.763Z,19.1
2016-09-24T06:28:37.086Z,19.13
2016-09-24T06:29:09.389Z,19.1
2016-09-24T06:29:41.710Z,19.19
2016-09-24T06:30:14.042Z,19.15
2016-09-24T06:30:46.358Z,19.16
2016-09-24T06:31:18.692Z,19.15
2016-09-24T06:31:51.022Z,19.24
2016-09-24T06:32:23.347Z,19.13
2016-09-24T06:32:55.678Z,19.28
2016-09-24T06:33:28.014Z,19.28
2016-09-24T06:34:00.354Z,19.25
2016-09-24T06:34:32.686Z,19.31
2016-09-24T06:35:05.044Z,19.3
2016-09-24T06:35:37.382Z,19.31
2016-09-24T06:36:09.728Z,19.35
2016-09-24T06:36:42.120Z,19.28
2016-09-24T06:37:14.437Z,19.4
2016-09-24T06:37:46.841Z,19.42
2016-09-24T06:38:19.170Z,19.46
2016-09-24T06:38:51.522Z,19.45
2016-09-24T06:39:23.839Z,19.49
2016-09-24T06:39:56.147Z,19.43
2016-09-24T06:40:28.462Z,19.45
2016-09-24T06:41:00.801Z,19.38
2016-09-24T06:41:33.124Z,19.55
2016-09-24T06:42:57.319Z,19.53
2016-09-24T06:43:29.655Z,19.47
2016-09-24T06:44:01.991Z,19.46
2016-09-24T06:44:34.317Z,19.49
2016-09-24T06:45:06.676Z,19.5
2016-09-24T06:45:39.004Z,19.47
2016-09-24T06:46:11.314Z,19.63
2016-09-24T06:46:43.660Z,19.57
2016-09-24T06:47:15.997Z,19.63
2016-09-24T06:47:48.328Z,19.61
2016-09-24T06:48:20.669Z,19.64
2016-09-24T06:48:53.007Z,19.61
2016-09-24T06:49:25.366Z,19.68
2016-09-24T06:49:57.715Z,19.7
2016-09-24T06:50:30.040Z,19.67
2016-09-24T06:51:02.367Z,19.64
2016-09-24T06:51:34.692Z,19.8
2016-09-24T06:52:07.008Z,19.71
2016-09-24T06:52:39.336Z,19.78
2016-09-24T06:53:11.670Z,19.85
2016-09-24T06:53:44.007Z,19.75
2016-09-24T06:54:16.339Z,19.78
2016-09-24T06:54:48.681Z,19.75
2016-09-24T06:55:21.004Z,19.75
2016-09-24T06:55:53.337Z,19.79
2016-09-24T06:56:25.669Z,19.79
2016-09-24T06:56:58.004Z,19.82
2016-09-24T06:57:30.322Z,19.83
2016-09-24T06:58:02.646Z,19.85
2016-09-24T06:58:34.984Z,19.82
2016-09-24T06:59:07.307Z,19.83